METAR LDZA 051530Z 06014KT 020V100 9999 FEW040 09/05 Q1016 TEMPO SHRA SCT045TCU=
METAR LDZA 051500Z 05020KT 350V080 9999 FEW040 11/04 Q1015 TEMPO TSRA FEW040CB SCT045TCU=
METAR LDZA 051430Z 34014G24KT 280V020 9999 FEW045TCU 15/04 Q1015 BECMG 03015G25KT TEMPO TSRA FEW040CB SCT045TCU=
METAR LDZA 051400Z 27006KT 230V300 9999 FEW046 17/00 Q1014 BECMG TL1500 03015KT TEMPO TSRA FEW040CB SCT045TCU=
METAR LDZA 051330Z 24006KT 190V280 9999 FEW046 17/03 Q1014 BECMG 03015KT TEMPO SHRA SCT045TCU=
METAR LDZA 051300Z 27007KT 230V350 9999 FEW046 17/02 Q1014 BECMG 03015KT TEMPO SHRA SCT045TCU=
METAR COR LDZA 051230Z 25008KT 220V280 9999 FEW046 16/02 Q1014 BECMG 03015KT TEMPO FM1300 SHRA SCT045TCU=
METAR LDZA 051200Z 26006KT 210V310 9999 FEW046 15/02 Q1014 TEMPO FM1300 SHRA SCT045TCU=
METAR LDZA 051130Z VRB03KT 9999 FEW046 15/03 Q1015 NOSIG=
METAR LDZA 051100Z 30005KT 260V350 9999 FEW046 14/03 Q1015 NOSIG=
METAR LDZA 051030Z 26006KT 210V340 CAVOK 14/03 Q1015 NOSIG=
METAR LDZA 051000Z 27008KT 230V330 CAVOK 14/04 Q1015 NOSIG=
METAR LDZA 050930Z 28007KT 230V340 CAVOK 13/03 Q1015 NOSIG=
METAR LDZA 050900Z 27008KT CAVOK 12/03 Q1015 NOSIG=
METAR LDZA 050830Z 26006KT 230V300 CAVOK 11/03 Q1015 NOSIG=
METAR LDZA 050800Z 26007KT 230V300 CAVOK 11/03 Q1015 NOSIG=
METAR LDZA 050730Z 27005KT 240V300 CAVOK 10/04 Q1015 NOSIG=
METAR LDZA 050700Z 30006KT 250V330 CAVOK 09/03 Q1014 NOSIG=
METAR LDZA 050630Z 30004KT 230V340 CAVOK 07/03 Q1014 NOSIG=
METAR LDZA 050600Z 24005KT CAVOK 07/02 Q1014 NOSIG=
METAR LDZA 050530Z 24006KT CAVOK 07/02 Q1014 NOSIG=
METAR LDZA 050500Z 26003KT CAVOK 06/02 Q1014 NOSIG=
METAR LDZA 050430Z 28003KT CAVOK 07/02 Q1014 NOSIG=
METAR LDZA 050400Z 25004KT CAVOK 07/02 Q1014 NOSIG=
METAR LDZA 050330Z 26003KT CAVOK 08/02 Q1014 NOSIG=
METAR LDZA 050300Z 24006KT CAVOK 08/02 Q1014 NOSIG=
METAR LDZA 050230Z 24006KT CAVOK 09/02 Q1014 NOSIG=
METAR LDZA 050200Z 24006KT CAVOK 09/02 Q1014 NOSIG=
METAR LDZA 050130Z 24007KT CAVOK 09/03 Q1015 NOSIG=
METAR LDZA 050100Z 25006KT CAVOK 08/02 Q1015 NOSIG=
METAR LDZA 050030Z 26006KT CAVOK 08/02 Q1015 NOSIG=
METAR LDZA 050000Z 23008KT CAVOK 09/02 Q1015 NOSIG=
METAR LDZA 042330Z 23008KT CAVOK 09/02 Q1015 NOSIG=
METAR LDZA 042300Z 23011KT CAVOK 09/02 Q1015 NOSIG=
METAR LDZA 042230Z 23010KT CAVOK 09/02 Q1015 NOSIG=
METAR LDZA 042200Z 23012KT CAVOK 09/02 Q1016 NOSIG=
METAR LDZA 042130Z 23008KT CAVOK 09/02 Q1016 NOSIG=
METAR LDZA 042100Z 23007KT CAVOK 09/02 Q1016 NOSIG=
METAR LDZA 042030Z 22009KT CAVOK 09/01 Q1016 NOSIG=
METAR LDZA 042000Z 22007KT 190V250 CAVOK 10/01 Q1016 NOSIG=
METAR LDZA 041930Z 23008KT CAVOK 10/00 Q1016 NOSIG=
METAR LDZA 041900Z 23010KT CAVOK 11/00 Q1016 NOSIG=
METAR LDZA 041830Z 23009KT CAVOK 12/00 Q1016 NOSIG=
METAR LDZA 041800Z 23008KT 210V270 CAVOK 12/00 Q1016 NOSIG=
METAR LDZA 041730Z 24006KT 210V280 CAVOK 12/M01 Q1016 NOSIG=
METAR LDZA 041700Z 27007KT 240V300 CAVOK 13/M02 Q1016 NOSIG=
METAR LDZA 041630Z 26006KT CAVOK 15/M01 Q1016 NOSIG=
METAR LDZA 041600Z 28006KT 250V320 CAVOK 16/M01 Q1016 NOSIG=
METAR LDZA 041530Z 29008KT 200V350 CAVOK 18/M01 Q1016 NOSIG=
METAR LDZA 041500Z 29008KT 220V350 CAVOK 18/M01 Q1016 NOSIG=
METAR LDZA 041430Z 29005KT 230V330 CAVOK 18/M02 Q1016 NOSIG=
METAR LDZA 041400Z 29006KT 230V330 CAVOK 19/M02 Q1016 TEMPO 24007KT=
METAR LDZA 041330Z 30007KT 240V360 CAVOK 18/M01 Q1017 TEMPO 24007KT=
METAR LDZA 041300Z 32007KT 270V020 CAVOK 18/M01 Q1017 TEMPO 24007KT=
METAR LDZA 041230Z 29007KT 200V350 CAVOK 18/M02 Q1017 NOSIG=
METAR LDZA 041200Z 25010KT 210V310 CAVOK 17/M02 Q1018 NOSIG=
METAR LDZA 041130Z 28008KT 220V020 CAVOK 17/M00 Q1019 NOSIG=
METAR LDZA 041100Z 26010KT 230V330 CAVOK 15/M01 Q1019 NOSIG=
METAR LDZA 041030Z 27008KT 240V320 CAVOK 15/M01 Q1020 BECMG 23009KT=
METAR LDZA 041000Z 28005KT 210V350 CAVOK 13/M00 Q1020 BECMG 23009KT=
METAR LDZA 040930Z 27005KT 220V350 CAVOK 12/M00 Q1021 TEMPO 22012KT=
METAR LDZA 040900Z 25008KT 210V270 CAVOK 11/M01 Q1021 TEMPO 22012KT=
METAR LDZA 040830Z VRB03KT CAVOK 10/00 Q1021 BECMG 22008KT=
METAR LDZA 040800Z 24004KT 200V260 CAVOK 07/M00 Q1021 BECMG 22008KT=
METAR LDZA 040730Z 23006KT CAVOK 06/M01 Q1022 NOSIG=
METAR LDZA 040700Z VRB02KT CAVOK 05/M02 Q1022 NOSIG=
METAR LDZA 040630Z VRB01KT CAVOK 03/M02 Q1022 NOSIG=
METAR LDZA 040600Z 25001KT CAVOK 03/M02 Q1022 NOSIG=
METAR LDZA 040530Z 24006KT CAVOK 03/M02 Q1022 NOSIG=
METAR LDZA 040500Z 23007KT CAVOK 02/M02 Q1022 NOSIG=
METAR LDZA 040430Z 23006KT CAVOK 02/M02 Q1022 NOSIG=
METAR LDZA 040400Z 26004KT CAVOK 01/M02 Q1023 NOSIG=